createdAt,value
2023-04-02T01:18:50.817Z,74.47
2023-04-02T01:21:53.913Z,75.11
2023-04-02T01:24:24.704Z,73.56
2023-04-02T01:26:58.839Z,73.87
2023-04-02T01:29:31.031Z,74.32
2023-04-02T01:32:02.561Z,73.75
2023-04-02T01:34:32.275Z,74.33
2023-04-02T01:37:17.929Z,74.17
2023-04-02T01:40:11.222Z,74.71
2023-04-02T01:42:46.734Z,74.60
2023-04-02T01:45:17.955Z,74.39
2023-04-02T01:47:46.736Z,74.41
2023-04-02T01:50:27.172Z,73.70
2023-04-02T01:52:57.735Z,73.38
2023-04-02T01:55:33.042Z,72.71
2023-04-02T01:58:03.873Z,72.66
2023-04-02T02:00:35.408Z,72.39
2023-04-02T02:03:03.804Z,72.08
2023-04-02T02:05:32.303Z,71.79
2023-04-02T02:08:02.292Z,71.88
2023-04-02T02:10:35.676Z,71.92
2023-04-02T02:13:04.815Z,71.06
2023-04-02T02:15:36.957Z,72.10
2023-04-02T02:18:07.145Z,71.83
2023-04-02T02:20:36.178Z,71.71
2023-04-02T02:23:05.546Z,72.12
2023-04-02T02:25:36.167Z,71.93
2023-04-02T02:28:08.945Z,72.54
2023-04-02T02:30:40.290Z,72.56
2023-04-02T02:33:16.461Z,73.62
2023-04-02T02:35:49.620Z,72.95
2023-04-02T02:38:42.098Z,72.10
2023-04-02T02:41:17.274Z,71.91
2023-04-02T02:43:54.226Z,71.47
2023-04-02T02:46:26.526Z,71.52
2023-04-02T02:48:56.476Z,74.03
2023-04-02T02:51:30.060Z,76.09
2023-04-02T02:54:03.472Z,77.23
2023-04-02T02:56:36.888Z,78.37
2023-04-02T02:59:08.186Z,77.66
2023-04-02T03:01:38.030Z,76.06
2023-04-02T03:04:06.824Z,75.37
2023-04-02T03:06:36.694Z,73.93
2023-04-02T03:09:13.949Z,74.61
2023-04-02T03:11:48.541Z,73.92
2023-04-02T03:14:24.100Z,73.57
2023-04-02T03:17:00.418Z,73.07
2023-04-02T03:19:33.830Z,73.34
2023-04-02T03:22:09.075Z,74.02
2023-04-02T03:24:43.250Z,74.31
2023-04-02T03:27:16.622Z,74.30
2023-04-02T03:29:51.941Z,73.25
2023-04-02T03:32:24.697Z,72.84
2023-04-02T03:34:56.541Z,73.36
2023-04-02T03:37:30.461Z,73.77
2023-04-02T03:40:04.628Z,74.01
2023-04-02T03:42:41.363Z,74.13
2023-04-02T03:45:17.681Z,74.51
2023-04-02T03:47:54.186Z,75.74
2023-04-02T03:50:28.595Z,75.58
2023-04-02T03:52:58.440Z,75.26
2023-04-02T03:55:29.881Z,75.26
2023-04-02T03:58:03.950Z,75.56
2023-04-02T04:00:37.508Z,76.22
2023-04-02T04:03:13.782Z,76.74
2023-04-02T04:05:49.506Z,76.75
2023-04-02T04:08:20.145Z,77.92
2023-04-02T04:10:53.559Z,78.37
2023-04-02T04:13:26.900Z,78.27
2023-04-02T04:15:59.561Z,79.02
2023-04-02T04:18:38.123Z,80.82
2023-04-02T04:21:15.597Z,81.55
2023-04-02T04:23:51.569Z,81.92
2023-04-02T04:26:25.291Z,81.72
2023-04-02T04:29:05.584Z,81.34
2023-04-02T04:31:39.428Z,81.13
2023-04-02T04:34:12.975Z,80.78
2023-04-02T04:36:54.427Z,80.38
2023-04-02T04:39:29.598Z,79.67
2023-04-02T04:42:00.714Z,79.04
2023-04-02T04:44:41.138Z,77.85
2023-04-02T04:47:14.840Z,77.88
2023-04-02T04:49:48.823Z,77.07
2023-04-02T04:52:21.692Z,76.47
2023-04-02T04:54:49.689Z,76.11
2023-04-02T04:57:29.370Z,76.04
2023-04-02T05:00:07.157Z,76.58
2023-04-02T05:02:42.192Z,76.17
2023-04-02T05:05:21.375Z,76.41
2023-04-02T05:07:52.531Z,75.57
2023-04-02T05:10:26.542Z,75.85
2023-04-02T05:12:58.181Z,75.26
2023-04-02T05:15:30.635Z,74.70
2023-04-02T05:18:18.930Z,74.72
2023-04-02T05:20:53.285Z,73.73
2023-04-02T05:23:27.095Z,72.99
2023-04-02T05:26:01.119Z,72.30
2023-04-02T05:28:36.140Z,71.66
2023-04-02T05:31:08.130Z,70.85
2023-04-02T05:33:38.038Z,70.88
2023-04-02T05:36:11.688Z,69.74
2023-04-02T05:38:46.416Z,68.06
2023-04-02T05:41:23.955Z,66.84
2023-04-02T05:44:00.125Z,65.35
2023-04-02T05:46:33.369Z,64.15
2023-04-02T05:49:01.941Z,61.97
2023-04-02T05:51:39.880Z,60.91
2023-04-02T05:54:17.900Z,59.41
2023-04-02T05:56:49.497Z,57.97
2023-04-02T05:59:22.795Z,56.19
2023-04-02T06:01:55.748Z,55.43
2023-04-02T06:04:29.915Z,55.44
2023-04-02T06:07:07.189Z,54.52
2023-04-02T06:09:43.324Z,55.90
2023-04-02T06:12:23.785Z,53.81
2023-04-02T06:14:51.952Z,51.94
2023-04-02T06:17:21.296Z,52.56
2023-04-02T06:19:50.034Z,53.22
2023-04-02T06:22:26.093Z,53.32
2023-04-02T06:25:01.680Z,53.94
2023-04-02T06:27:30.377Z,53.70
2023-04-02T06:30:03.751Z,54.35
2023-04-02T06:32:31.851Z,56.50
2023-04-02T06:34:59.971Z,56.91
2023-04-02T06:37:34.400Z,56.44
2023-04-02T06:40:03.834Z,55.08
2023-04-02T06:42:35.801Z,55.63
2023-04-02T06:45:04.296Z,55.53
2023-04-02T06:47:37.629Z,54.68
2023-04-02T06:50:11.468Z,54.38
2023-04-02T06:52:47.577Z,54.57
2023-04-02T06:55:31.147Z,53.57
2023-04-02T06:57:59.234Z,53.47
2023-04-02T07:00:32.269Z,53.46
2023-04-02T07:03:03.325Z,53.91
2023-04-02T07:05:31.629Z,53.03
2023-04-02T07:08:00.959Z,51.37
2023-04-02T07:10:28.861Z,52.14
2023-04-02T07:12:56.925Z,52.65
2023-04-02T07:15:25.541Z,53.59
2023-04-02T07:17:54.880Z,50.82
2023-04-02T07:20:29.106Z,51.02
2023-04-02T07:22:57.456Z,51.84
2023-04-02T07:25:27.752Z,50.98
2023-04-02T07:27:56.226Z,50.82
2023-04-02T07:30:24.258Z,50.53
2023-04-02T07:32:52.217Z,50.21
2023-04-02T07:35:20.391Z,49.56
2023-04-02T07:37:48.314Z,49.65
2023-04-02T07:40:19.050Z,49.05
2023-04-02T07:42:48.445Z,49.69
2023-04-02T07:45:16.727Z,49.28
2023-04-02T07:47:45.528Z,47.19
2023-04-02T07:50:13.488Z,47.22
2023-04-02T07:52:42.600Z,44.54
2023-04-02T07:55:12.582Z,44.01
2023-04-02T07:57:43.634Z,42.77
2023-04-02T08:00:15.659Z,43.05
2023-04-02T08:02:43.910Z,44.91
2023-04-02T08:05:12.130Z,43.66
2023-04-02T08:07:40.360Z,44.74
2023-04-02T08:10:09.994Z,42.98
2023-04-02T08:12:38.062Z,43.22
2023-04-02T08:15:07.494Z,42.80
2023-04-02T08:17:36.990Z,42.51
2023-04-02T08:20:06.692Z,43.34
2023-04-02T08:22:34.820Z,42.31
2023-04-02T08:25:02.731Z,41.84
2023-04-02T08:27:30.931Z,40.13
2023-04-02T08:29:59.125Z,40.28
2023-04-02T08:32:29.106Z,38.80
2023-04-02T08:34:58.418Z,38.59
2023-04-02T08:37:26.385Z,36.86
2023-04-02T08:39:54.314Z,37.17
2023-04-02T08:42:30.983Z,36.30
2023-04-02T08:45:25.134Z,35.81
2023-04-02T08:47:57.580Z,36.28
2023-04-02T08:50:32.173Z,36.47
2023-04-02T08:53:01.432Z,35.00
2023-04-02T08:55:36.544Z,34.12
2023-04-02T08:58:15.833Z,33.89
2023-04-02T09:00:46.588Z,35.04
2023-04-02T09:03:19.664Z,35.67
2023-04-02T09:05:52.141Z,35.76
2023-04-02T09:08:22.188Z,33.81
2023-04-02T09:10:55.029Z,33.71
2023-04-02T09:13:25.958Z,32.96
2023-04-02T09:15:59.766Z,33.60
2023-04-02T09:18:32.066Z,35.38
2023-04-02T09:21:04.962Z,33.96
2023-04-02T09:23:33.033Z,32.33
2023-04-02T09:26:04.141Z,33.19
2023-04-02T09:28:33.122Z,34.24
2023-04-02T09:31:07.403Z,33.36
2023-04-02T09:33:43.973Z,32.06
2023-04-02T09:36:27.761Z,30.33
2023-04-02T09:39:01.524Z,30.26
2023-04-02T09:41:31.354Z,30.82
2023-04-02T09:44:22.637Z,30.95
2023-04-02T09:47:04.046Z,31.34
2023-04-02T09:49:34.101Z,32.22
2023-04-02T09:52:28.372Z,31.51
2023-04-02T09:55:19.996Z,30.36
2023-04-02T09:57:49.307Z,29.27
2023-04-02T10:00:31.569Z,28.59
2023-04-02T10:03:04.710Z,28.47
2023-04-02T10:08:19.994Z,29.41
2023-04-02T10:10:50.909Z,29.86
2023-04-02T10:13:25.560Z,29.07
2023-04-02T10:15:58.552Z,28.18
2023-04-02T10:18:38.182Z,27.80
2023-04-02T10:21:07.763Z,26.57
2023-04-02T10:23:37.114Z,26.75
2023-04-02T10:26:21.239Z,27.33
2023-04-02T10:29:07.300Z,27.74
2023-04-02T10:31:41.609Z,27.90
2023-04-02T10:34:20.806Z,29.88
2023-04-02T10:36:52.705Z,29.55
2023-04-02T10:39:27.347Z,30.52
2023-04-02T10:42:03.782Z,31.20
2023-04-02T10:44:41.008Z,29.48
2023-04-02T10:47:28.694Z,30.46
2023-04-02T10:50:11.410Z,29.45
2023-04-02T10:52:44.607Z,29.97
2023-04-02T10:55:19.244Z,29.90
2023-04-02T10:57:47.758Z,28.34
2023-04-02T11:00:22.408Z,28.16
2023-04-02T11:02:54.158Z,27.66
2023-04-02T11:05:30.705Z,27.17
2023-04-02T11:08:05.697Z,28.35
2023-04-02T11:10:38.337Z,28.43
2023-04-02T11:13:15.498Z,29.63
2023-04-02T11:15:44.040Z,28.61
2023-04-02T11:18:24.823Z,28.72
2023-04-02T11:21:04.139Z,28.75
2023-04-02T11:23:35.638Z,28.68
2023-04-02T11:26:37.543Z,29.26
2023-04-02T11:29:17.780Z,29.14
2023-04-02T11:31:46.845Z,27.96
2023-04-02T11:34:17.207Z,28.71
2023-04-02T11:37:02.185Z,28.02
2023-04-02T11:39:53.715Z,28.28
2023-04-02T11:42:28.378Z,28.93
2023-04-02T11:45:01.130Z,28.99
2023-04-02T11:47:31.075Z,30.02
2023-04-02T11:50:07.948Z,29.67
2023-04-02T11:52:39.603Z,28.23
2023-04-02T11:55:24.362Z,29.09
2023-04-02T11:58:03.556Z,29.36
2023-04-02T12:00:54.848Z,29.61
2023-04-02T12:03:38.409Z,29.49
2023-04-02T12:06:13.413Z,29.34
2023-04-02T12:08:57.890Z,29.41
2023-04-02T12:11:34.630Z,29.73
2023-04-02T12:14:04.005Z,29.23
2023-04-02T12:16:36.538Z,29.63
2023-04-02T12:19:09.769Z,29.77
2023-04-02T12:21:39.108Z,29.09
2023-04-02T12:24:08.040Z,29.71
2023-04-02T12:26:38.443Z,29.60
2023-04-02T12:29:26.944Z,29.38
2023-04-02T12:31:57.876Z,29.87
2023-04-02T12:34:27.585Z,29.65
2023-04-02T12:36:59.685Z,29.71
2023-04-02T12:39:28.490Z,28.46
2023-04-02T12:41:57.251Z,28.84
2023-04-02T12:44:27.221Z,29.30
2023-04-02T12:46:57.833Z,29.26
2023-04-02T12:49:36.979Z,29.08
2023-04-02T12:52:07.813Z,28.70
2023-04-02T12:54:39.302Z,28.90
2023-04-02T12:57:39.994Z,28.80
2023-04-02T13:00:44.564Z,29.06
2023-04-02T13:03:22.502Z,28.94
2023-04-02T13:05:54.525Z,29.25
2023-04-02T13:08:26.194Z,29.16
2023-04-02T13:10:57.135Z,28.99
2023-04-02T13:13:30.254Z,28.89
2023-04-02T13:16:03.705Z,29.31
2023-04-02T13:18:34.697Z,29.30
2023-04-02T13:21:04.198Z,28.82
2023-04-02T13:23:37.782Z,29.33
2023-04-02T13:26:17.326Z,29.11
2023-04-02T13:28:56.602Z,29.58
2023-04-02T13:31:24.806Z,29.80
2023-04-02T13:33:54.225Z,29.88
2023-04-02T13:36:22.429Z,29.78
2023-04-02T13:38:50.617Z,29.65
2023-04-02T13:41:27.511Z,29.74
2023-04-02T13:43:56.703Z,30.10
2023-04-02T13:46:26.546Z,30.30
2023-04-02T13:48:56.857Z,30.48
2023-04-02T13:51:28.662Z,30.37
2023-04-02T13:53:58.831Z,30.20
2023-04-02T13:56:27.232Z,30.14
2023-04-02T13:58:55.324Z,30.20
2023-04-02T14:01:25.816Z,30.13
2023-04-02T14:03:58.089Z,30.24
2023-04-02T14:06:41.003Z,29.77
2023-04-02T14:09:18.823Z,29.45
2023-04-02T14:11:57.334Z,29.67
2023-04-02T14:14:50.641Z,29.09
2023-04-02T14:17:30.280Z,28.90
2023-04-02T14:20:17.543Z,29.21
2023-04-02T14:23:03.658Z,30.23
2023-04-02T14:25:39.311Z,29.86
2023-04-02T14:28:14.045Z,29.98
2023-04-02T14:30:52.130Z,29.61
2023-04-02T14:33:30.465Z,29.69
2023-04-02T14:36:11.657Z,30.17
2023-04-02T14:38:45.334Z,30.88
2023-04-02T14:41:19.942Z,30.54
2023-04-02T14:43:55.456Z,30.96
2023-04-02T14:46:27.611Z,30.90
2023-04-02T14:48:58.248Z,30.35
2023-04-02T14:51:34.070Z,30.62
2023-04-02T14:54:07.567Z,29.82
2023-04-02T14:56:41.784Z,30.09
2023-04-02T14:59:30.376Z,29.74
2023-04-02T15:02:03.565Z,29.80
2023-04-02T15:04:38.370Z,29.71
2023-04-02T15:07:18.923Z,29.46
2023-04-02T15:09:53.525Z,29.37
2023-04-02T15:12:25.016Z,29.47
2023-04-02T15:14:59.372Z,29.40
2023-04-02T15:17:27.767Z,29.17
2023-04-02T15:20:08.336Z,29.40
2023-04-02T15:22:47.870Z,29.35
2023-04-02T15:25:25.897Z,29.67
2023-04-02T15:28:04.616Z,29.33
2023-04-02T15:30:37.308Z,29.40
2023-04-02T15:33:37.984Z,29.32
2023-04-02T15:36:31.535Z,28.74
2023-04-02T15:39:15.349Z,29.03
2023-04-02T15:41:54.761Z,28.80
2023-04-02T15:44:22.816Z,28.00
2023-04-02T15:47:01.431Z,28.20
2023-04-02T15:49:43.019Z,28.54
2023-04-02T15:52:16.492Z,28.51
2023-04-02T15:55:09.815Z,28.04
2023-04-02T15:57:54.590Z,28.25
2023-04-02T16:00:26.753Z,28.17
2023-04-02T16:03:34.572Z,28.38
2023-04-02T16:06:17.260Z,28.87
2023-04-02T16:08:58.657Z,29.12
2023-04-02T16:11:28.337Z,28.57
2023-04-02T16:14:05.909Z,29.27
2023-04-02T16:16:36.219Z,29.63
2023-04-02T16:19:16.014Z,29.60
2023-04-02T16:21:50.161Z,29.49
2023-04-02T16:24:18.346Z,29.00
2023-04-02T16:26:57.950Z,29.22
2023-04-02T16:29:55.830Z,29.18
2023-04-02T16:32:43.791Z,28.87
2023-04-02T16:35:41.614Z,29.74
2023-04-02T16:38:22.444Z,29.43
2023-04-02T16:41:07.726Z,29.53
2023-04-02T16:43:48.889Z,29.32
2023-04-02T16:46:36.287Z,29.45
2023-04-02T16:49:20.861Z,29.24
2023-04-02T16:51:58.107Z,29.53
2023-04-02T16:54:32.890Z,29.81
2023-04-02T16:57:17.513Z,30.97
2023-04-02T16:59:56.233Z,30.83
2023-04-02T17:02:39.894Z,30.85
2023-04-02T17:05:23.463Z,30.78
2023-04-02T17:08:01.580Z,31.33
2023-04-02T17:10:32.271Z,31.54
2023-04-02T17:13:10.835Z,32.06
2023-04-02T17:15:41.941Z,32.20
2023-04-02T17:18:16.216Z,32.46
2023-04-02T17:20:44.769Z,32.40
2023-04-02T17:23:14.964Z,32.64
2023-04-02T17:25:48.876Z,33.37
2023-04-02T17:28:25.326Z,33.61
2023-04-02T17:30:57.415Z,33.03
2023-04-02T17:33:27.528Z,33.87
2023-04-02T17:36:22.294Z,33.66
2023-04-02T17:39:03.678Z,33.70
2023-04-02T17:41:37.985Z,34.17
2023-04-02T17:44:17.764Z,34.06
2023-04-02T17:46:58.525Z,34.51
2023-04-02T17:49:37.685Z,34.45
2023-04-02T17:52:13.826Z,34.37
2023-04-02T17:54:51.613Z,34.33
2023-04-02T17:57:38.750Z,34.28
2023-04-02T18:00:26.630Z,34.59
2023-04-02T18:03:11.272Z,34.90
2023-04-02T18:05:45.381Z,34.52
2023-04-02T18:08:22.760Z,34.81
2023-04-02T18:11:05.834Z,35.10
2023-04-02T18:13:36.315Z,35.04
2023-04-02T18:16:44.705Z,35.08
2023-04-02T18:19:18.074Z,35.72
2023-04-02T18:21:55.528Z,35.67
2023-04-02T18:24:47.498Z,35.85
2023-04-02T18:27:31.135Z,35.64
2023-04-02T18:30:12.379Z,36.07
2023-04-02T18:32:58.207Z,36.24
2023-04-02T18:35:32.755Z,36.52
2023-04-02T18:38:22.612Z,36.81
2023-04-02T18:41:04.085Z,37.23
2023-04-02T18:43:43.737Z,37.16
2023-04-02T18:46:23.397Z,37.49
2023-04-02T18:48:56.869Z,37.82
2023-04-02T18:51:27.701Z,38.27
2023-04-02T18:54:16.167Z,38.14
2023-04-02T18:56:44.132Z,38.28
2023-04-02T18:59:34.722Z,38.53
2023-04-02T19:02:23.420Z,38.60
2023-04-02T19:04:59.295Z,38.56
2023-04-02T19:07:31.024Z,38.65
2023-04-02T19:10:04.037Z,38.79
2023-04-02T19:12:33.947Z,39.57
2023-04-02T19:15:01.884Z,40.27
2023-04-02T19:17:34.945Z,39.95
2023-04-02T19:20:15.646Z,40.57
2023-04-02T19:22:58.150Z,41.04
2023-04-02T19:25:35.938Z,40.97
2023-04-02T19:28:09.536Z,41.08
2023-04-02T19:30:53.918Z,41.14
2023-04-02T19:33:35.931Z,41.08
2023-04-02T19:36:17.163Z,40.97
2023-04-02T19:39:01.742Z,40.86
2023-04-02T19:41:36.981Z,40.92
2023-04-02T19:44:10.693Z,40.73
2023-04-02T19:46:39.954Z,41.17
2023-04-02T19:49:11.621Z,40.94
2023-04-02T19:51:39.702Z,41.07
2023-04-02T19:54:08.962Z,41.15
2023-04-02T19:56:37.170Z,41.32
2023-04-02T19:59:17.061Z,42.14
2023-04-02T20:01:45.855Z,42.23
2023-04-02T20:04:13.909Z,42.67
2023-04-02T20:06:41.924Z,43.00
2023-04-02T20:09:11.268Z,43.17
2023-04-02T20:11:40.085Z,43.06
2023-04-02T20:14:07.986Z,43.23
2023-04-02T20:16:36.948Z,43.43
2023-04-02T20:19:04.943Z,43.85
2023-04-02T20:21:38.371Z,43.88
2023-04-02T20:24:07.168Z,44.15
2023-04-02T20:26:37.173Z,43.94
2023-04-02T20:29:05.262Z,44.08
2023-04-02T20:31:33.652Z,44.17
2023-04-02T20:34:02.699Z,43.96
2023-04-02T20:36:30.788Z,43.73
2023-04-02T20:38:58.890Z,43.82
2023-04-02T20:41:27.556Z,43.74
2023-04-02T20:43:56.883Z,43.40
2023-04-02T20:46:25.264Z,43.42
2023-04-02T20:48:53.225Z,43.67
2023-04-02T20:51:21.807Z,43.20
2023-04-02T20:53:49.804Z,42.64
2023-04-02T20:56:19.504Z,42.64
2023-04-02T20:58:47.591Z,42.50
2023-04-02T21:01:19.753Z,42.49
2023-04-02T21:03:48.162Z,43.19
2023-04-02T21:06:18.057Z,42.67
2023-04-02T21:08:46.191Z,43.19
2023-04-02T21:11:14.693Z,42.69
2023-04-02T21:13:44.277Z,42.90
2023-04-02T21:16:16.200Z,43.61
2023-04-02T21:18:46.047Z,43.48
2023-04-02T21:21:16.339Z,43.42
2023-04-02T21:23:45.618Z,43.36
2023-04-02T21:26:15.565Z,43.52
2023-04-02T21:28:44.494Z,43.78
2023-04-02T21:31:15.896Z,43.57
2023-04-02T21:33:47.380Z,45.08
2023-04-02T21:36:17.263Z,45.09
2023-04-02T21:38:46.757Z,44.83
2023-04-02T21:41:16.848Z,44.58
2023-04-02T21:43:46.029Z,44.66
2023-04-02T21:46:13.985Z,44.49
2023-04-02T21:48:42.093Z,44.52
2023-04-02T21:51:13.990Z,44.13
2023-04-02T21:53:43.229Z,45.21
2023-04-02T21:56:14.541Z,45.21
2023-04-02T21:58:43.457Z,45.28
2023-04-02T22:01:20.440Z,45.08
2023-04-02T22:03:54.465Z,45.20
2023-04-02T22:06:25.238Z,44.69
2023-04-02T22:08:54.985Z,45.33
2023-04-02T22:11:25.358Z,45.92
2023-04-02T22:13:53.567Z,45.87
2023-04-02T22:16:23.242Z,45.95
2023-04-02T22:18:52.857Z,46.28
2023-04-02T22:21:21.543Z,46.48
2023-04-02T22:23:51.041Z,46.58
2023-04-02T22:26:20.784Z,46.64
2023-04-02T22:28:48.745Z,46.62
2023-04-02T22:31:19.960Z,46.83
2023-04-02T22:33:48.895Z,46.70
2023-04-02T22:36:17.852Z,46.77
2023-04-02T22:38:46.026Z,47.04
2023-04-02T22:41:17.293Z,47.44
2023-04-02T22:43:46.628Z,47.53
2023-04-02T22:46:17.063Z,47.65
2023-04-02T22:48:46.380Z,47.66
2023-04-02T22:51:16.870Z,47.86
2023-04-02T22:53:45.621Z,47.55
2023-04-02T22:56:16.680Z,47.00
2023-04-02T22:58:45.173Z,46.59
2023-04-02T23:01:16.892Z,46.89
2023-04-02T23:03:44.856Z,46.47
2023-04-02T23:06:15.663Z,46.61
2023-04-02T23:08:44.024Z,46.67
2023-04-02T23:11:14.093Z,46.57
2023-04-02T23:13:43.831Z,46.80
2023-04-02T23:16:13.805Z,47.39
2023-04-02T23:18:43.092Z,47.66
2023-04-02T23:21:11.755Z,47.55
2023-04-02T23:23:39.706Z,48.00
2023-04-02T23:26:09.410Z,47.90
2023-04-02T23:28:38.384Z,48.33
2023-04-02T23:31:09.510Z,48.65
2023-04-02T23:33:37.544Z,48.75
2023-04-02T23:36:08.547Z,48.88
2023-04-02T23:38:36.602Z,48.90
2023-04-02T23:41:04.599Z,49.75
2023-04-02T23:43:32.655Z,50.28
2023-04-02T23:46:00.559Z,50.44
2023-04-02T23:48:29.843Z,50.54
2023-04-02T23:50:57.918Z,50.86
2023-04-02T23:53:26.000Z,50.85
2023-04-02T23:55:53.941Z,50.97
2023-04-02T23:58:21.902Z,50.49
